createdAt,value
2018-05-08T00:00:15.079Z,48.68
2018-05-08T00:03:18.336Z,48.69
2018-05-08T00:06:21.619Z,48.88
2018-05-08T00:09:25.641Z,49.05
2018-05-08T00:12:28.932Z,49.27
2018-05-08T00:15:32.194Z,49.45
2018-05-08T00:18:35.558Z,51.46
2018-05-08T00:21:38.810Z,52.85
2018-05-08T00:24:42.844Z,53.58
2018-05-08T00:27:46.107Z,54.41
2018-05-08T00:30:49.368Z,55.96
2018-05-08T00:33:52.641Z,56.07
2018-05-08T00:36:55.922Z,55.85
2018-05-08T00:40:00.050Z,56.07
2018-05-08T00:43:04.075Z,56.59
2018-05-08T00:46:07.320Z,56.77
2018-05-08T00:49:10.585Z,57.58
2018-05-08T00:52:13.841Z,57.42
2018-05-08T00:55:18.342Z,57.72
2018-05-08T00:58:21.681Z,57.94
2018-05-08T01:01:25.733Z,57.32
2018-05-08T01:04:28.988Z,57.81
2018-05-08T01:07:33.036Z,58.11
2018-05-08T01:10:36.482Z,58.44
2018-05-08T01:13:39.744Z,58.60
2018-05-08T01:16:43.020Z,58.90
2018-05-08T01:19:46.289Z,59.39
2018-05-08T01:22:50.311Z,59.58
2018-05-08T01:25:54.322Z,60.06
2018-05-08T01:28:58.347Z,60.41
2018-05-08T01:32:01.614Z,60.32
2018-05-08T01:35:05.638Z,59.61
2018-05-08T01:38:09.675Z,60.29
2018-05-08T01:41:12.927Z,60.20
2018-05-08T01:44:16.183Z,60.25
2018-05-08T01:47:19.451Z,60.67
2018-05-08T01:50:23.473Z,60.12
2018-05-08T01:53:28.007Z,60.14
2018-05-08T01:56:31.296Z,60.16
2018-05-08T01:59:35.428Z,58.12
2018-05-08T02:02:38.690Z,58.30
2018-05-08T02:05:42.683Z,58.95
2018-05-08T02:08:45.940Z,61.33
2018-05-08T02:11:49.217Z,61.86
2018-05-08T02:14:53.312Z,62.27
2018-05-08T02:17:56.637Z,62.42
2018-05-08T02:21:00.641Z,62.66
2018-05-08T02:24:04.696Z,62.63
2018-05-08T02:27:07.961Z,63.53
2018-05-08T02:30:12.010Z,62.82
2018-05-08T02:33:15.505Z,63.25
2018-05-08T02:36:18.746Z,63.95
2018-05-08T02:39:22.073Z,63.50
2018-05-08T02:42:26.079Z,64.08
2018-05-08T02:45:30.101Z,63.85
2018-05-08T02:48:34.218Z,63.71
2018-05-08T02:51:38.227Z,64.00
2018-05-08T02:54:42.251Z,64.73
2018-05-08T02:57:46.267Z,64.98
2018-05-08T03:00:49.574Z,65.03
2018-05-08T03:03:52.834Z,64.26
2018-05-08T03:06:56.088Z,63.79
2018-05-08T03:09:59.362Z,63.33
2018-05-08T03:13:02.617Z,62.99
2018-05-08T03:16:05.859Z,62.67
2018-05-08T03:19:09.293Z,61.66
2018-05-08T03:22:12.602Z,62.42
2018-05-08T03:25:15.829Z,62.13
2018-05-08T03:28:19.902Z,61.72
2018-05-08T03:31:23.150Z,62.13
2018-05-08T03:34:27.188Z,61.59
2018-05-08T03:37:30.490Z,61.25
2018-05-08T03:40:33.746Z,62.62
2018-05-08T03:43:37.829Z,60.90
2018-05-08T03:46:41.077Z,61.05
2018-05-08T03:49:45.107Z,61.28
2018-05-08T03:52:48.369Z,62.17
2018-05-08T03:55:51.617Z,62.34
2018-05-08T03:58:55.133Z,62.25
2018-05-08T04:02:17.046Z,61.73
2018-05-08T04:05:38.432Z,61.85
2018-05-08T04:08:41.681Z,63.31
2018-05-08T04:11:44.963Z,62.60
2018-05-08T04:14:48.934Z,62.57
2018-05-08T04:17:52.269Z,63.54
2018-05-08T04:20:56.539Z,63.35
2018-05-08T04:24:05.625Z,63.66
2018-05-08T04:27:10.462Z,63.51
2018-05-08T04:30:14.506Z,64.07
2018-05-08T04:33:18.248Z,64.43
2018-05-08T04:36:23.297Z,62.91
2018-05-08T04:39:26.593Z,65.25
2018-05-08T04:42:29.941Z,65.07
2018-05-08T04:45:33.966Z,64.80
2018-05-08T04:48:37.246Z,64.70
2018-05-08T04:51:41.266Z,64.12
2018-05-08T04:54:45.332Z,63.64
2018-05-08T04:57:48.582Z,63.16
2018-05-08T05:00:51.884Z,62.93
2018-05-08T05:03:55.902Z,62.99
2018-05-08T05:07:00.011Z,63.34
2018-05-08T05:10:03.264Z,63.37
2018-05-08T05:13:06.530Z,63.31
2018-05-08T05:16:10.549Z,63.50
2018-05-08T05:19:13.845Z,61.09
2018-05-08T05:22:17.130Z,60.92
2018-05-08T05:25:20.388Z,59.47
2018-05-08T05:28:23.756Z,58.99
2018-05-08T05:31:26.933Z,58.15
2018-05-08T05:34:30.202Z,58.14
2018-05-08T05:37:34.288Z,57.40
2018-05-08T05:40:37.538Z,57.19
2018-05-08T05:43:41.581Z,56.93
2018-05-08T05:46:45.603Z,55.49
2018-05-08T05:49:49.804Z,55.12
2018-05-08T05:52:53.137Z,54.19
2018-05-08T05:55:57.152Z,53.47
2018-05-08T05:59:01.178Z,51.01
2018-05-08T06:02:04.527Z,48.55
2018-05-08T06:05:07.791Z,47.60
2018-05-08T06:08:11.050Z,46.31
2018-05-08T06:11:15.194Z,45.55
2018-05-08T06:14:18.454Z,46.47
2018-05-08T06:17:21.710Z,44.50
2018-05-08T06:20:24.997Z,45.57
2018-05-08T06:23:28.855Z,43.68
2018-05-08T06:26:32.130Z,43.36
2018-05-08T06:29:36.137Z,42.93
2018-05-08T06:32:40.109Z,42.67
2018-05-08T06:35:43.521Z,42.85
2018-05-08T06:38:46.833Z,42.15
2018-05-08T06:41:50.129Z,43.04
2018-05-08T06:44:53.413Z,42.15
2018-05-08T06:47:56.664Z,43.37
2018-05-08T06:50:59.969Z,38.73
2018-05-08T06:54:04.083Z,42.32
2018-05-08T06:57:08.209Z,45.19
2018-05-08T07:00:12.235Z,43.58
2018-05-08T07:03:16.251Z,41.33
2018-05-08T07:06:20.274Z,44.61
2018-05-08T07:09:24.421Z,40.80
2018-05-08T07:12:27.691Z,42.01
2018-05-08T07:15:31.724Z,44.86
2018-05-08T07:18:35.762Z,41.65
2018-05-08T07:21:39.030Z,42.09
2018-05-08T07:24:43.046Z,43.47
2018-05-08T07:27:47.070Z,40.98
2018-05-08T07:30:51.085Z,42.02
2018-05-08T07:33:55.316Z,43.06
2018-05-08T07:36:59.365Z,42.64
2018-05-08T07:40:02.624Z,42.70
2018-05-08T07:43:06.650Z,40.24
2018-05-08T07:46:10.678Z,40.85
2018-05-08T07:49:13.934Z,40.53
2018-05-08T07:52:17.984Z,40.16
2018-05-08T07:55:22.007Z,42.28
2018-05-08T07:58:26.033Z,42.00
2018-05-08T08:01:30.051Z,41.02
2018-05-08T08:04:34.074Z,40.71
2018-05-08T08:10:56.534Z,41.68
2018-05-08T08:14:00.560Z,40.36
2018-05-08T08:17:04.593Z,39.69
2018-05-08T08:20:07.850Z,39.53
2018-05-08T08:23:11.116Z,39.82
2018-05-08T08:26:14.372Z,39.15
2018-05-08T08:29:18.396Z,39.30
2018-05-08T08:32:22.513Z,39.25
2018-05-08T08:35:26.526Z,37.69
2018-05-08T08:38:29.798Z,39.97
2018-05-08T08:41:33.050Z,39.20
2018-05-08T08:44:36.369Z,38.64
2018-05-08T08:47:39.735Z,38.42
2018-05-08T08:50:42.933Z,39.44
2018-05-08T08:53:46.190Z,37.24
2018-05-08T08:56:49.458Z,36.49
2018-05-08T08:59:53.474Z,37.31
2018-05-08T09:02:57.517Z,36.59
2018-05-08T09:06:00.771Z,35.32
2018-05-08T09:09:04.086Z,36.21
2018-05-08T09:12:08.113Z,34.93
2018-05-08T09:15:12.139Z,34.89
2018-05-08T09:18:15.465Z,32.69
2018-05-08T09:21:18.734Z,32.55
2018-05-08T09:24:22.024Z,33.86
2018-05-08T09:27:26.125Z,31.48
2018-05-08T09:30:29.300Z,35.57
2018-05-08T09:33:33.834Z,31.84
2018-05-08T09:36:37.090Z,34.13
2018-05-08T09:39:40.353Z,32.86
2018-05-08T09:42:43.677Z,32.00
2018-05-08T09:45:46.925Z,32.87
2018-05-08T09:48:50.225Z,34.24
2018-05-08T09:51:53.495Z,32.94
2018-05-08T09:54:56.766Z,34.56
2018-05-08T09:58:00.798Z,30.50
2018-05-08T10:01:06.144Z,30.76
2018-05-08T10:04:09.526Z,30.07
2018-05-08T10:07:14.494Z,32.18
2018-05-08T10:10:17.758Z,32.10
2018-05-08T10:13:21.141Z,35.30
2018-05-08T10:16:24.416Z,33.82
2018-05-08T10:19:27.707Z,31.94
2018-05-08T10:22:31.703Z,31.54
2018-05-08T10:25:35.717Z,31.71
2018-05-08T10:28:39.763Z,32.01
2018-05-08T10:31:43.022Z,30.99
2018-05-08T10:34:46.272Z,31.57
2018-05-08T10:37:49.649Z,31.50
2018-05-08T10:40:53.666Z,32.42
2018-05-08T10:43:57.726Z,33.29
2018-05-08T10:47:01.099Z,32.86
2018-05-08T10:50:05.135Z,32.27
2018-05-08T10:53:08.402Z,32.24
2018-05-08T10:56:11.653Z,32.37
2018-05-08T10:59:14.929Z,32.26
2018-05-08T11:02:18.958Z,30.34
2018-05-08T11:05:22.213Z,29.39
2018-05-08T11:08:25.478Z,29.75
2018-05-08T11:11:28.757Z,31.33
2018-05-08T11:14:32.026Z,29.90
2018-05-08T11:17:35.324Z,30.93
2018-05-08T11:20:38.573Z,29.16
2018-05-08T11:23:41.845Z,29.25
2018-05-08T11:26:45.901Z,29.24
2018-05-08T11:29:49.953Z,29.57
2018-05-08T11:32:54.282Z,28.54
2018-05-08T11:35:57.595Z,27.89
2018-05-08T11:39:00.932Z,27.25
2018-05-08T11:42:04.182Z,26.35
2018-05-08T11:45:07.457Z,26.17
2018-05-08T11:48:10.725Z,26.73
2018-05-08T11:51:14.739Z,27.23
2018-05-08T11:54:18.767Z,27.43
2018-05-08T11:57:22.021Z,27.64
2018-05-08T12:00:25.284Z,25.84
2018-05-08T12:03:28.549Z,26.46
2018-05-08T12:06:31.805Z,27.47
2018-05-08T12:09:35.092Z,28.83
2018-05-08T12:12:39.634Z,26.82
2018-05-08T12:15:42.878Z,27.63
2018-05-08T12:18:46.140Z,28.14
2018-05-08T12:21:49.459Z,27.52
2018-05-08T12:24:54.241Z,27.73
2018-05-08T12:27:58.258Z,26.44
2018-05-08T12:31:02.302Z,27.06
2018-05-08T12:34:05.599Z,26.75
2018-05-08T12:37:08.857Z,26.17
2018-05-08T12:40:12.114Z,25.72
2018-05-08T12:43:15.366Z,27.35
2018-05-08T12:46:19.412Z,27.60
2018-05-08T12:49:23.430Z,26.65
2018-05-08T12:52:28.248Z,25.97
2018-05-08T12:55:31.574Z,26.69
2018-05-08T12:58:34.984Z,26.41
2018-05-08T13:01:40.421Z,24.68
2018-05-08T13:04:44.227Z,24.81
2018-05-08T13:07:47.943Z,26.41
2018-05-08T13:10:51.220Z,26.52
2018-05-08T13:13:54.477Z,26.94
2018-05-08T13:16:58.197Z,27.08
2018-05-08T13:20:01.449Z,26.53
2018-05-08T13:23:04.741Z,25.63
2018-05-08T13:26:11.874Z,24.21
2018-05-08T13:29:15.981Z,26.04
2018-05-08T13:32:19.335Z,26.89
2018-05-08T13:35:22.654Z,26.59
2018-05-08T13:38:25.906Z,26.55
2018-05-08T13:41:29.938Z,26.60
2018-05-08T13:44:33.189Z,26.83
2018-05-08T13:47:36.527Z,26.87
2018-05-08T13:50:40.574Z,26.42
2018-05-08T13:53:43.821Z,26.79
2018-05-08T13:56:47.301Z,25.56
2018-05-08T13:59:50.604Z,25.58
2018-05-08T14:02:53.861Z,26.03
2018-05-08T14:05:57.134Z,25.66
2018-05-08T14:09:01.174Z,26.40
2018-05-08T14:12:04.573Z,26.24
2018-05-08T14:15:08.601Z,27.05
2018-05-08T14:18:11.874Z,26.42
2018-05-08T14:21:15.131Z,26.24
2018-05-08T14:24:18.387Z,25.71
2018-05-08T14:27:21.667Z,26.61
2018-05-08T14:30:24.968Z,27.18
2018-05-08T14:33:29.181Z,27.33
2018-05-08T14:36:33.201Z,26.34
2018-05-08T14:39:37.239Z,26.28
2018-05-08T14:42:41.564Z,26.86
2018-05-08T14:45:47.496Z,26.34
2018-05-08T14:48:50.742Z,26.10
2018-05-08T14:51:54.011Z,26.63
2018-05-08T14:54:57.293Z,27.20
2018-05-08T14:58:00.642Z,27.05
2018-05-08T15:01:05.910Z,27.48
2018-05-08T15:04:09.158Z,27.11
2018-05-08T15:07:12.418Z,27.34
2018-05-08T15:10:15.756Z,27.32
2018-05-08T15:13:19.922Z,27.63
2018-05-08T15:16:24.996Z,27.35
2018-05-08T15:19:28.625Z,26.96
2018-05-08T15:22:32.035Z,27.14
2018-05-08T15:25:35.314Z,27.34
2018-05-08T15:28:38.581Z,27.39
2018-05-08T15:31:41.941Z,27.10
2018-05-08T15:34:45.496Z,27.80
2018-05-08T15:37:49.562Z,28.14
2018-05-08T15:40:52.901Z,28.51
2018-05-08T15:43:56.292Z,27.58
2018-05-08T15:46:59.488Z,28.20
2018-05-08T15:50:03.516Z,27.83
2018-05-08T15:53:07.542Z,28.38
2018-05-08T15:56:10.818Z,27.92
2018-05-08T15:59:14.139Z,28.70
2018-05-08T16:02:18.222Z,28.68
2018-05-08T16:05:21.457Z,28.47
2018-05-08T16:08:24.759Z,28.55
2018-05-08T16:11:29.168Z,28.46
2018-05-08T16:14:33.190Z,28.93
2018-05-08T16:17:37.226Z,27.85
2018-05-08T16:20:40.490Z,28.60
2018-05-08T16:23:45.314Z,28.92
2018-05-08T16:26:48.581Z,29.42
2018-05-08T16:29:51.897Z,29.45
2018-05-08T16:32:55.148Z,29.71
2018-05-08T16:35:59.169Z,29.91
2018-05-08T16:39:02.852Z,29.54
2018-05-08T16:42:06.115Z,29.94
2018-05-08T16:45:11.109Z,30.42
2018-05-08T16:48:15.225Z,30.41
2018-05-08T16:51:18.482Z,27.45
2018-05-08T16:54:21.748Z,26.35
2018-05-08T16:57:25.773Z,25.69
2018-05-08T17:00:29.022Z,26.58
2018-05-08T17:03:32.937Z,26.32
2018-05-08T17:06:36.331Z,27.81
2018-05-08T17:09:39.690Z,29.09
2018-05-08T17:12:42.984Z,30.26
2018-05-08T17:15:54.057Z,30.46
2018-05-08T17:18:58.080Z,31.74
2018-05-08T17:22:02.234Z,34.24
2018-05-08T17:25:05.484Z,35.15
2018-05-08T17:28:09.535Z,35.84
2018-05-08T17:31:13.582Z,36.54
2018-05-08T17:34:16.834Z,37.20
2018-05-08T17:37:20.873Z,37.54
2018-05-08T17:40:24.148Z,38.17
2018-05-08T17:43:27.393Z,38.33
2018-05-08T17:46:30.694Z,38.50
2018-05-08T17:49:33.956Z,38.71
2018-05-08T17:52:37.262Z,39.36
2018-05-08T17:55:41.312Z,39.72
2018-05-08T17:58:44.585Z,40.28
2018-05-08T18:01:48.599Z,40.63
2018-05-08T18:04:52.637Z,41.30
2018-05-08T18:07:55.898Z,41.34
2018-05-08T18:10:59.253Z,41.81
2018-05-08T18:14:02.526Z,42.21
2018-05-08T18:17:06.617Z,42.88
2018-05-08T18:20:09.944Z,43.45
2018-05-08T18:23:13.247Z,43.28
2018-05-08T18:26:17.777Z,43.49
2018-05-08T18:29:21.802Z,44.45
2018-05-08T18:32:25.998Z,44.21
2018-05-08T18:35:29.341Z,44.61
2018-05-08T18:38:32.631Z,44.85
2018-05-08T18:41:35.917Z,45.17
2018-05-08T18:44:39.304Z,45.56
2018-05-08T18:47:43.339Z,45.66
2018-05-08T18:50:46.633Z,46.11
2018-05-08T18:53:50.653Z,46.55
2018-05-08T18:56:54.690Z,47.12
2018-05-08T19:00:03.456Z,46.49
2018-05-08T19:03:06.858Z,46.75
2018-05-08T19:06:10.322Z,47.33
2018-05-08T19:09:13.780Z,47.25
2018-05-08T19:12:17.142Z,47.49
2018-05-08T19:15:26.671Z,47.34
2018-05-08T19:18:36.121Z,47.97
2018-05-08T19:21:40.479Z,47.88
2018-05-08T19:24:43.985Z,48.12
2018-05-08T19:27:48.321Z,48.45
2018-05-08T19:30:52.348Z,48.55
2018-05-08T19:33:55.627Z,48.56
2018-05-08T19:37:04.345Z,48.78
2018-05-08T19:40:07.686Z,48.89
2018-05-08T19:43:10.869Z,49.08
2018-05-08T19:46:16.371Z,49.64
2018-05-08T19:49:19.643Z,49.57
2018-05-08T19:52:23.673Z,49.85
2018-05-08T19:55:52.179Z,50.12
2018-05-08T19:58:56.481Z,50.33
2018-05-08T20:02:00.303Z,50.86
2018-05-08T20:05:03.570Z,51.54
2018-05-08T20:08:07.591Z,51.19
2018-05-08T20:11:10.873Z,51.41
2018-05-08T20:14:14.129Z,51.68
2018-05-08T20:17:17.402Z,51.89
2018-05-08T20:20:21.636Z,52.64
2018-05-08T20:23:24.939Z,52.85
2018-05-08T20:26:28.220Z,53.17
2018-05-08T20:29:31.534Z,53.59
2018-05-08T20:32:35.602Z,53.97
2018-05-08T20:35:39.237Z,54.71
2018-05-08T20:38:42.431Z,55.05
2018-05-08T20:41:46.449Z,55.44
2018-05-08T20:44:49.735Z,55.33
2018-05-08T20:47:53.066Z,55.45
2018-05-08T20:50:57.095Z,55.93
2018-05-08T20:54:01.123Z,55.54
2018-05-08T20:57:04.939Z,56.24
2018-05-08T21:00:08.228Z,56.04
2018-05-08T21:03:12.349Z,56.33
2018-05-08T21:06:16.371Z,56.19
2018-05-08T21:09:19.848Z,56.49
2018-05-08T21:12:23.060Z,57.02
2018-05-08T21:15:27.069Z,57.67
2018-05-08T21:18:30.362Z,58.09
2018-05-08T21:21:33.632Z,58.61
2018-05-08T21:24:36.890Z,58.58
2018-05-08T21:27:47.271Z,58.16
2018-05-08T21:30:56.186Z,59.08
2018-05-08T21:34:00.266Z,59.35
2018-05-08T21:37:03.531Z,59.24
2018-05-08T21:40:06.813Z,59.23
2018-05-08T21:43:10.876Z,58.73
2018-05-08T21:46:14.130Z,58.26
2018-05-08T21:52:27.199Z,57.95
2018-05-08T21:55:30.477Z,57.29
2018-05-08T21:58:33.739Z,57.26
2018-05-08T22:01:36.988Z,56.62
2018-05-08T22:04:40.300Z,56.30
2018-05-08T22:07:43.648Z,56.17
2018-05-08T22:10:46.925Z,56.08
2018-05-08T22:13:50.196Z,56.30
2018-05-08T22:16:53.451Z,56.31
2018-05-08T22:19:56.705Z,56.57
2018-05-08T22:23:00.124Z,57.09
2018-05-08T22:26:03.415Z,56.97
2018-05-08T22:29:06.672Z,57.12
2018-05-08T22:32:10.723Z,56.84
2018-05-08T22:35:13.983Z,56.95
2018-05-08T22:38:18.184Z,56.84
2018-05-08T22:41:21.433Z,56.59
2018-05-08T22:44:24.708Z,56.79
2018-05-08T22:47:28.007Z,56.76
2018-05-08T22:50:32.028Z,57.21
2018-05-08T22:53:36.053Z,57.37
2018-05-08T22:56:40.154Z,57.13
2018-05-08T22:59:43.367Z,58.28
2018-05-08T23:02:47.428Z,58.37
2018-05-08T23:05:50.749Z,59.26
2018-05-08T23:08:54.068Z,58.91
2018-05-08T23:11:57.289Z,58.40
2018-05-08T23:15:00.576Z,59.00
2018-05-08T23:18:04.695Z,58.32
2018-05-08T23:21:08.719Z,58.97
2018-05-08T23:24:11.987Z,59.27
2018-05-08T23:27:17.242Z,59.61
2018-05-08T23:30:21.378Z,60.33
2018-05-08T23:33:25.465Z,60.78
2018-05-08T23:36:28.798Z,61.32
2018-05-08T23:39:32.908Z,60.96
2018-05-08T23:42:36.930Z,61.34
2018-05-08T23:45:40.970Z,62.01
2018-05-08T23:48:45.162Z,61.51
2018-05-08T23:51:49.920Z,61.59
2018-05-08T23:54:53.934Z,61.98
2018-05-08T23:57:58.323Z,63.40
